createdAt,value
2018-11-11T00:00:42.354Z,6.00
2018-11-11T00:05:45.783Z,5.50
2018-11-11T00:10:49.172Z,5.60
2018-11-11T00:15:52.605Z,5.47
2018-11-11T00:20:55.915Z,5.30
2018-11-11T00:25:59.311Z,5.30
2018-11-11T00:31:02.748Z,5.35
2018-11-11T00:36:06.251Z,5.17
2018-11-11T00:50:44.223Z,4.63
2018-11-11T00:55:48.564Z,4.80
2018-11-11T01:01:03.018Z,4.95
2018-11-11T01:06:06.521Z,4.70
2018-11-11T01:11:10.031Z,5.00
2018-11-11T01:16:16.936Z,4.50
2018-11-11T01:21:20.372Z,4.50
2018-11-11T01:26:23.868Z,4.05
2018-11-11T01:31:27.340Z,4.80
2018-11-11T01:36:34.447Z,5.03
2018-11-11T01:41:38.396Z,4.60
2018-11-11T01:46:41.843Z,5.60
2018-11-11T01:51:45.416Z,4.97
2018-11-11T01:56:48.808Z,4.40
2018-11-11T02:01:52.158Z,4.00
2018-11-11T02:06:55.472Z,3.50
2018-11-11T02:11:58.852Z,3.12
2018-11-11T02:17:02.170Z,3.33
2018-11-11T02:22:05.509Z,3.33
2018-11-11T02:27:08.756Z,3.70
2018-11-11T02:32:12.230Z,3.60
2018-11-11T02:37:15.683Z,4.40
2018-11-11T02:42:18.956Z,4.50
2018-11-11T02:47:22.612Z,5.08
2018-11-11T02:52:25.902Z,4.90
2018-11-11T02:57:29.176Z,4.95
2018-11-11T03:02:32.490Z,5.40
2018-11-11T03:07:35.941Z,5.80
2018-11-11T03:12:39.761Z,5.15
2018-11-11T03:17:43.015Z,4.87
2018-11-11T03:22:46.292Z,5.20
2018-11-11T03:27:49.571Z,6.00
2018-11-11T03:32:52.917Z,5.50
2018-11-11T03:37:56.268Z,5.97
2018-11-11T03:43:00.878Z,5.93
2018-11-11T03:48:04.408Z,6.40
2018-11-11T03:53:07.705Z,6.20
2018-11-11T03:58:11.012Z,6.83
2018-11-11T04:03:14.300Z,6.70
2018-11-11T04:08:17.558Z,6.40
2018-11-11T04:13:20.910Z,6.92
2018-11-11T04:18:24.270Z,7.60
2018-11-11T04:23:28.542Z,10.00
2018-11-11T04:28:36.769Z,8.83
2018-11-11T04:33:40.243Z,9.20
2018-11-11T04:38:43.527Z,9.70
2018-11-11T04:43:46.911Z,10.50
2018-11-11T04:48:50.332Z,10.75
2018-11-11T04:53:53.620Z,12.30
2018-11-11T04:58:56.929Z,12.25
2018-11-11T05:04:00.393Z,12.80
2018-11-11T05:09:05.028Z,13.83
2018-11-11T05:14:09.677Z,12.73
2018-11-11T05:19:13.052Z,13.65
2018-11-11T05:24:17.257Z,12.83
2018-11-11T05:29:20.583Z,12.93
2018-11-11T05:34:23.892Z,13.55
2018-11-11T05:39:27.165Z,13.03
2018-11-11T05:44:30.557Z,13.57
2018-11-11T05:49:33.985Z,11.20
2018-11-11T05:54:37.413Z,12.37
2018-11-11T05:59:40.902Z,11.70
2018-11-11T06:04:44.605Z,11.75
2018-11-11T06:09:49.051Z,11.70
2018-11-11T06:14:52.565Z,11.63
2018-11-11T06:42:19.070Z,9.08
2018-11-11T06:47:22.689Z,8.80
2018-11-11T06:52:26.387Z,8.60
2018-11-11T06:57:30.188Z,7.10
2018-11-11T07:02:37.084Z,6.63
2018-11-11T07:07:40.771Z,5.37
2018-11-11T07:12:44.517Z,5.30
2018-11-11T07:17:48.071Z,5.20
2018-11-11T07:22:51.827Z,4.40
2018-11-11T07:27:56.357Z,4.70
2018-11-11T07:33:01.171Z,4.20
2018-11-11T07:38:05.816Z,3.60
2018-11-11T07:43:10.233Z,3.52
2018-11-11T07:48:14.131Z,3.60
2018-11-11T07:53:17.677Z,3.70
2018-11-11T07:58:21.632Z,2.70
2018-11-11T08:03:25.122Z,2.27
2018-11-11T08:08:28.733Z,2.43
2018-11-11T08:13:32.285Z,2.10
2018-11-11T08:18:35.834Z,2.43
2018-11-11T08:23:39.414Z,2.50
2018-11-11T08:28:42.988Z,2.83
2018-11-11T08:33:46.549Z,2.40
2018-11-11T08:38:51.678Z,2.45
2018-11-11T08:43:56.463Z,2.10
2018-11-11T08:48:59.964Z,2.65
2018-11-11T08:54:07.110Z,2.10
2018-11-11T08:59:10.665Z,1.50
2018-11-11T09:04:14.152Z,1.70
2018-11-11T09:09:19.807Z,1.20
2018-11-11T09:31:19.767Z,2.00
2018-11-11T09:36:25.010Z,1.30
2018-11-11T09:41:29.068Z,1.30
2018-11-11T09:46:33.297Z,1.30
2018-11-11T09:51:36.655Z,1.40
2018-11-11T09:56:40.236Z,1.42
2018-11-11T10:01:43.942Z,1.60
2018-11-11T10:13:00.770Z,1.32
2018-11-11T10:24:01.961Z,2.12
2018-11-11T10:29:13.024Z,1.60
2018-11-11T10:34:49.559Z,1.80
2018-11-11T10:39:58.380Z,1.53
2018-11-11T10:45:03.632Z,1.40
2018-11-11T10:50:09.108Z,1.80
2018-11-11T10:55:13.345Z,1.70
2018-11-11T11:00:22.095Z,1.90
2018-11-11T11:05:26.269Z,1.30
2018-11-11T11:10:34.673Z,1.50
2018-11-11T11:15:39.371Z,1.70
2018-11-11T11:20:43.671Z,1.80
2018-11-11T11:25:52.665Z,1.98
2018-11-11T11:36:27.495Z,1.67
2018-11-11T11:41:31.110Z,1.80
2018-11-11T11:46:35.447Z,1.77
2018-11-11T11:51:38.907Z,1.60
2018-11-11T11:56:42.333Z,1.75
2018-11-11T12:01:45.768Z,1.60
2018-11-11T12:06:49.129Z,1.60
2018-11-11T12:11:52.518Z,1.65
2018-11-11T12:16:56.165Z,1.80
2018-11-11T12:22:00.419Z,1.70
2018-11-11T12:27:05.340Z,1.77
2018-11-11T12:32:08.740Z,1.53
2018-11-11T12:37:12.144Z,1.67
2018-11-11T12:42:15.985Z,1.40
2018-11-11T12:47:19.464Z,1.60
2018-11-11T12:52:23.703Z,1.82
2018-11-11T12:57:27.260Z,1.65
2018-11-11T13:02:30.664Z,1.30
2018-11-11T13:07:34.556Z,1.70
2018-11-11T13:12:38.053Z,1.60
2018-11-11T13:17:42.314Z,1.90
2018-11-11T13:22:45.991Z,2.10
2018-11-11T13:27:49.356Z,2.00
2018-11-11T13:32:53.222Z,1.80
2018-11-11T13:37:57.084Z,1.60
2018-11-11T13:43:00.545Z,1.80
2018-11-11T13:48:03.999Z,2.10
2018-11-11T13:53:07.619Z,2.10
2018-11-11T13:58:11.229Z,1.80
2018-11-11T14:03:14.801Z,1.90
2018-11-11T14:08:18.187Z,2.10
2018-11-11T14:13:21.724Z,1.92
2018-11-11T14:18:26.139Z,1.90
2018-11-11T14:23:29.358Z,2.75
2018-11-11T14:28:32.867Z,1.70
2018-11-11T14:33:36.490Z,1.80
2018-11-11T14:38:41.131Z,1.60
2018-11-11T14:43:47.733Z,2.05
2018-11-11T14:48:52.025Z,1.50
2018-11-11T14:53:56.362Z,1.80
2018-11-11T14:59:00.232Z,1.60
2018-11-11T15:04:05.127Z,2.10
2018-11-11T15:09:10.811Z,1.90
2018-11-11T15:14:14.332Z,2.10
2018-11-11T15:19:18.893Z,2.93
2018-11-11T15:24:23.649Z,2.52
2018-11-11T15:29:27.642Z,2.37
2018-11-11T15:34:34.062Z,2.10
2018-11-11T15:39:38.242Z,1.82
2018-11-11T15:44:42.062Z,2.17
2018-11-11T15:49:53.801Z,2.50
2018-11-11T15:54:57.419Z,2.55
2018-11-11T16:00:05.541Z,2.40
2018-11-11T16:05:13.629Z,2.60
2018-11-11T16:10:21.753Z,3.15
2018-11-11T16:15:32.053Z,3.20
2018-11-11T16:20:38.182Z,3.50
2018-11-11T16:25:47.848Z,3.70
2018-11-11T16:30:53.633Z,3.10
2018-11-11T16:35:59.178Z,8.15
2018-11-11T16:41:02.494Z,11.05
2018-11-11T16:46:05.754Z,4.90
2018-11-11T16:51:10.359Z,4.67
2018-11-11T16:56:18.404Z,5.25
2018-11-11T17:01:25.281Z,4.25
2018-11-11T17:06:28.735Z,4.20
2018-11-11T17:11:32.100Z,5.12
2018-11-11T17:16:35.529Z,5.60
2018-11-11T17:21:39.171Z,6.10
2018-11-11T17:26:42.336Z,3.13
2018-11-11T17:31:45.916Z,2.90
2018-11-11T17:36:49.178Z,3.70
2018-11-11T17:41:52.861Z,5.10
2018-11-11T17:46:56.486Z,4.40
2018-11-11T17:51:59.991Z,5.97
2018-11-11T17:57:03.473Z,6.08
2018-11-11T18:08:03.457Z,4.70
2018-11-11T18:13:21.829Z,4.67
2018-11-11T18:18:25.324Z,5.13
2018-11-11T18:23:28.683Z,4.17
2018-11-11T18:28:32.809Z,8.20
2018-11-11T18:33:38.134Z,6.00
2018-11-11T18:38:43.592Z,3.77
2018-11-11T18:43:47.711Z,9.87
2018-11-11T18:48:51.120Z,6.42
2018-11-11T18:53:55.845Z,7.60
2018-11-11T18:58:59.868Z,6.20
2018-11-11T19:04:08.120Z,5.23
2018-11-11T19:09:14.048Z,4.60
2018-11-11T19:14:17.740Z,5.10
2018-11-11T19:19:23.301Z,3.60
2018-11-11T19:24:26.928Z,4.90
2018-11-11T19:29:33.587Z,4.10
2018-11-11T19:37:26.084Z,4.30
2018-11-11T19:42:39.179Z,4.65
2018-11-11T19:47:46.761Z,4.27
2018-11-11T19:52:53.381Z,2.70
2018-11-11T19:57:56.854Z,3.40
2018-11-11T20:03:01.542Z,5.60
2018-11-11T20:08:07.049Z,4.80
2018-11-11T20:13:11.417Z,3.30
2018-11-11T20:18:20.211Z,2.95
2018-11-11T20:23:30.158Z,2.50
2018-11-11T20:28:52.270Z,2.22
2018-11-11T20:33:55.895Z,2.30
2018-11-11T20:39:17.343Z,2.50
2018-11-11T20:49:20.688Z,2.50
2018-11-11T20:59:32.586Z,2.77
2018-11-11T21:04:36.838Z,2.47
2018-11-11T21:09:40.631Z,2.30
2018-11-11T21:14:51.955Z,2.80
2018-11-11T21:19:55.565Z,2.50
2018-11-11T21:25:00.305Z,2.35
2018-11-11T21:30:18.981Z,2.40
2018-11-11T21:35:30.689Z,1.95
2018-11-11T21:40:39.727Z,1.80
2018-11-11T21:45:43.287Z,1.80
2018-11-11T21:50:53.236Z,2.80
2018-11-11T21:55:56.781Z,3.62
2018-11-11T22:01:02.449Z,1.70
2018-11-11T22:06:12.554Z,1.90
2018-11-11T22:11:16.321Z,2.17
2018-11-11T22:16:20.050Z,1.90
2018-11-11T22:21:24.945Z,2.00
2018-11-11T22:26:35.597Z,2.30
2018-11-11T22:31:41.195Z,7.50
2018-11-11T22:36:47.153Z,3.67
2018-11-11T22:41:52.423Z,1.90
2018-11-11T22:46:55.929Z,2.40
2018-11-11T22:57:33.462Z,1.90
2018-11-11T23:10:25.512Z,3.50
2018-11-11T23:16:32.110Z,3.10
2018-11-11T23:21:38.150Z,2.40
2018-11-11T23:26:42.469Z,2.30
2018-11-11T23:31:47.921Z,2.40
2018-11-11T23:36:58.886Z,3.33
2018-11-11T23:42:05.553Z,3.05
2018-11-11T23:47:10.865Z,4.60
2018-11-11T23:52:19.335Z,4.10
2018-11-11T23:57:23.714Z,2.60
